VYLY weather

Lanywa Airport
Lanywa, Magway Division, Burma

Public forecast

Using degrees Celsius for public forecast. Weather courtesy of forecast.io.

METAR (pilot weather report)

Closest report is Mandalay International Airport, 79.2 nm (146.6 km) NE. Retrieved 2019/09/15 06:30 UTC (36 seconds ago):

VYMD 150630Z 16003KT 7000 BKN020 FEW025CB 36/25 Q1006 NOSIG

TAF (pilot weather forecast)

Closest forecast is Mandalay International Airport, 79.2 nm (146.6 km) NE. Retrieved 2019/09/15 06:00 UTC (31 minutes ago):

TAF VYMD 150500Z 1506/1606 14003KT 7000 BKN020 FEW025CB TEMPO 1506/1512 24005KT 5000 -TSRA BKN015 FEW018CB OVC090